U S A F Academy, Colorado
Current Conditions -  °F | °C
As of 11:56 AM on Thursday 30 Oct 2014 (Local Time) from KSHM Reporting Station
Clear Clear  
Wind Chill: 12°   Ceiling: Unl
Heat Index: 12°   Visibility: 10mi
Dew Point: -5°   Wind: 3mph
Humidity: 31%   Direction: NA
Pressure: 30.42"   Gusts: NA
Location:  38.8247°N, 104.562°W
Report Text: KSHM 301756Z AUTO VRB03KT 10SM CLR 12/M05 A3042 RMK AO2 SLP277 T01201049 10121 20059 50004
Loading
Personal Weather Stations






























Interactive Weather Map
Tropical Storm Tracking
New forecast layout! Learn more

10-Day Weather Forecast

Advertisements
Track Severe Weather on mobile